sensor_id;sensor_type;location;lat;lon;timestamp;P1;durP1;ratioP1;P2;durP2;ratioP2
9166;SDS011;4618;48.818;9.088;2023-06-26T00:01:26;9.53;;;8.63;;
9166;SDS011;4618;48.818;9.088;2023-06-26T00:03:56;9.63;;;8.63;;
9166;SDS011;4618;48.818;9.088;2023-06-26T00:06:22;9.30;;;8.37;;
9166;SDS011;4618;48.818;9.088;2023-06-26T00:08:51;8.50;;;7.70;;
9166;SDS011;4618;48.818;9.088;2023-06-26T00:11:18;9.23;;;7.97;;
9166;SDS011;4618;48.818;9.088;2023-06-26T00:13:45;10.33;;;9.33;;
9166;SDS011;4618;48.818;9.088;2023-06-26T00:16:10;9.63;;;8.73;;
9166;SDS011;4618;48.818;9.088;2023-06-26T00:18:36;9.77;;;8.40;;
9166;SDS011;4618;48.818;9.088;2023-06-26T00:21:01;8.77;;;7.97;;
9166;SDS011;4618;48.818;9.088;2023-06-26T00:23:27;8.53;;;7.70;;
9166;SDS011;4618;48.818;9.088;2023-06-26T00:25:53;9.90;;;8.90;;
9166;SDS011;4618;48.818;9.088;2023-06-26T00:28:18;9.20;;;8.30;;
9166;SDS011;4618;48.818;9.088;2023-06-26T00:30:44;10.40;;;8.47;;
9166;SDS011;4618;48.818;9.088;2023-06-26T00:33:09;9.90;;;8.80;;
9166;SDS011;4618;48.818;9.088;2023-06-26T00:35:35;8.90;;;8.07;;
9166;SDS011;4618;48.818;9.088;2023-06-26T00:38:01;9.63;;;8.10;;
9166;SDS011;4618;48.818;9.088;2023-06-26T00:40:26;9.50;;;8.50;;
9166;SDS011;4618;48.818;9.088;2023-06-26T00:42:52;9.00;;;8.20;;
9166;SDS011;4618;48.818;9.088;2023-06-26T00:45:18;9.23;;;8.33;;
9166;SDS011;4618;48.818;9.088;2023-06-26T00:47:44;9.07;;;8.17;;
9166;SDS011;4618;48.818;9.088;2023-06-26T00:50:10;8.77;;;7.87;;
9166;SDS011;4618;48.818;9.088;2023-06-26T00:52:36;9.40;;;8.50;;
9166;SDS011;4618;48.818;9.088;2023-06-26T00:55:02;9.13;;;8.30;;
9166;SDS011;4618;48.818;9.088;2023-06-26T00:57:29;9.73;;;8.73;;
9166;SDS011;4618;48.818;9.088;2023-06-26T00:59:55;9.47;;;8.47;;
9166;SDS011;4618;48.818;9.088;2023-06-26T01:02:22;8.87;;;8.07;;
9166;SDS011;4618;48.818;9.088;2023-06-26T01:04:48;9.03;;;8.23;;
9166;SDS011;4618;48.818;9.088;2023-06-26T01:07:15;8.60;;;7.80;;
9166;SDS011;4618;48.818;9.088;2023-06-26T01:09:43;8.87;;;7.97;;
9166;SDS011;4618;48.818;9.088;2023-06-26T01:12:11;8.47;;;7.67;;
9166;SDS011;4618;48.818;9.088;2023-06-26T01:14:36;9.07;;;8.17;;
9166;SDS011;4618;48.818;9.088;2023-06-26T01:17:02;9.10;;;8.30;;
9166;SDS011;4618;48.818;9.088;2023-06-26T01:19:29;7.97;;;7.17;;
9166;SDS011;4618;48.818;9.088;2023-06-26T01:22:00;8.30;;;7.50;;
9166;SDS011;4618;48.818;9.088;2023-06-26T01:24:39;8.37;;;7.57;;
9166;SDS011;4618;48.818;9.088;2023-06-26T01:27:12;8.87;;;7.97;;
9166;SDS011;4618;48.818;9.088;2023-06-26T01:29:39;8.30;;;7.60;;
9166;SDS011;4618;48.818;9.088;2023-06-26T01:32:06;9.00;;;8.20;;
9166;SDS011;4618;48.818;9.088;2023-06-26T01:34:32;9.17;;;8.37;;
9166;SDS011;4618;48.818;9.088;2023-06-26T01:36:58;8.60;;;7.80;;
9166;SDS011;4618;48.818;9.088;2023-06-26T01:39:24;9.33;;;8.53;;
9166;SDS011;4618;48.818;9.088;2023-06-26T01:41:49;9.47;;;7.83;;
9166;SDS011;4618;48.818;9.088;2023-06-26T01:44:31;9.37;;;8.40;;
9166;SDS011;4618;48.818;9.088;2023-06-26T01:47:02;9.13;;;8.23;;
9166;SDS011;4618;48.818;9.088;2023-06-26T01:49:49;10.30;;;8.90;;
9166;SDS011;4618;48.818;9.088;2023-06-26T01:52:19;9.07;;;8.17;;
9166;SDS011;4618;48.818;9.088;2023-06-26T01:55:05;9.47;;;8.47;;
9166;SDS011;4618;48.818;9.088;2023-06-26T01:57:41;8.87;;;8.07;;
9166;SDS011;4618;48.818;9.088;2023-06-26T02:00:09;8.70;;;7.80;;
9166;SDS011;4618;48.818;9.088;2023-06-26T02:02:36;9.57;;;8.50;;
9166;SDS011;4618;48.818;9.088;2023-06-26T02:05:02;8.50;;;7.80;;
9166;SDS011;4618;48.818;9.088;2023-06-26T02:07:27;8.60;;;7.80;;
9166;SDS011;4618;48.818;9.088;2023-06-26T02:09:53;9.07;;;8.27;;
9166;SDS011;4618;48.818;9.088;2023-06-26T02:12:19;9.07;;;8.13;;
9166;SDS011;4618;48.818;9.088;2023-06-26T02:14:44;9.10;;;8.30;;
9166;SDS011;4618;48.818;9.088;2023-06-26T02:17:10;8.50;;;7.57;;
9166;SDS011;4618;48.818;9.088;2023-06-26T02:19:35;8.80;;;8.00;;
9166;SDS011;4618;48.818;9.088;2023-06-26T02:22:01;9.10;;;8.30;;
9166;SDS011;4618;48.818;9.088;2023-06-26T02:24:27;9.53;;;8.63;;
9166;SDS011;4618;48.818;9.088;2023-06-26T02:26:55;8.43;;;7.73;;
9166;SDS011;4618;48.818;9.088;2023-06-26T02:29:22;8.43;;;7.63;;
9166;SDS011;4618;48.818;9.088;2023-06-26T02:31:48;10.07;;;8.27;;
9166;SDS011;4618;48.818;9.088;2023-06-26T02:34:14;9.20;;;8.20;;
9166;SDS011;4618;48.818;9.088;2023-06-26T02:36:39;9.43;;;8.53;;
9166;SDS011;4618;48.818;9.088;2023-06-26T02:39:05;8.80;;;8.00;;
9166;SDS011;4618;48.818;9.088;2023-06-26T02:41:31;9.27;;;8.37;;
9166;SDS011;4618;48.818;9.088;2023-06-26T02:43:56;12.00;;;8.80;;
9166;SDS011;4618;48.818;9.088;2023-06-26T02:46:22;9.63;;;8.70;;
9166;SDS011;4618;48.818;9.088;2023-06-26T02:48:47;9.50;;;8.60;;
9166;SDS011;4618;48.818;9.088;2023-06-26T02:51:13;10.70;;;8.77;;
9166;SDS011;4618;48.818;9.088;2023-06-26T02:53:38;11.07;;;9.80;;
9166;SDS011;4618;48.818;9.088;2023-06-26T02:56:04;10.00;;;8.90;;
9166;SDS011;4618;48.818;9.088;2023-06-26T02:58:29;10.30;;;8.77;;
9166;SDS011;4618;48.818;9.088;2023-06-26T03:00:55;9.63;;;8.60;;
9166;SDS011;4618;48.818;9.088;2023-06-26T03:03:21;11.47;;;9.00;;
9166;SDS011;4618;48.818;9.088;2023-06-26T03:05:46;9.67;;;8.50;;
9166;SDS011;4618;48.818;9.088;2023-06-26T03:08:12;10.37;;;9.23;;
9166;SDS011;4618;48.818;9.088;2023-06-26T03:10:38;12.50;;;8.90;;
9166;SDS011;4618;48.818;9.088;2023-06-26T03:13:03;11.77;;;9.13;;
9166;SDS011;4618;48.818;9.088;2023-06-26T03:15:29;9.70;;;8.70;;
9166;SDS011;4618;48.818;9.088;2023-06-26T03:17:54;10.13;;;9.13;;
9166;SDS011;4618;48.818;9.088;2023-06-26T03:20:20;9.97;;;8.70;;
9166;SDS011;4618;48.818;9.088;2023-06-26T03:22:45;9.80;;;8.80;;
9166;SDS011;4618;48.818;9.088;2023-06-26T03:25:11;10.37;;;8.70;;
9166;SDS011;4618;48.818;9.088;2023-06-26T03:27:36;10.33;;;8.50;;
9166;SDS011;4618;48.818;9.088;2023-06-26T03:30:02;10.17;;;9.10;;
9166;SDS011;4618;48.818;9.088;2023-06-26T03:32:27;16.67;;;8.40;;
9166;SDS011;4618;48.818;9.088;2023-06-26T03:34:53;9.37;;;8.30;;
9166;SDS011;4618;48.818;9.088;2023-06-26T03:37:19;11.33;;;8.40;;
9166;SDS011;4618;48.818;9.088;2023-06-26T03:39:44;9.97;;;8.60;;
9166;SDS011;4618;48.818;9.088;2023-06-26T03:42:10;9.87;;;8.00;;
9166;SDS011;4618;48.818;9.088;2023-06-26T03:44:35;8.83;;;7.60;;
9166;SDS011;4618;48.818;9.088;2023-06-26T03:47:01;8.53;;;7.73;;
9166;SDS011;4618;48.818;9.088;2023-06-26T03:49:26;9.20;;;7.93;;
9166;SDS011;4618;48.818;9.088;2023-06-26T03:51:52;8.87;;;8.07;;
9166;SDS011;4618;48.818;9.088;2023-06-26T03:54:18;8.37;;;7.57;;
9166;SDS011;4618;48.818;9.088;2023-06-26T03:56:43;8.50;;;7.57;;
9166;SDS011;4618;48.818;9.088;2023-06-26T03:59:09;7.90;;;7.20;;
9166;SDS011;4618;48.818;9.088;2023-06-26T04:01:35;8.40;;;7.60;;
9166;SDS011;4618;48.818;9.088;2023-06-26T04:04:02;8.83;;;7.97;;
9166;SDS011;4618;48.818;9.088;2023-06-26T04:06:28;8.17;;;7.27;;
9166;SDS011;4618;48.818;9.088;2023-06-26T04:08:56;7.93;;;7.20;;
9166;SDS011;4618;48.818;9.088;2023-06-26T04:11:22;8.20;;;7.50;;
9166;SDS011;4618;48.818;9.088;2023-06-26T04:13:47;8.10;;;7.30;;
9166;SDS011;4618;48.818;9.088;2023-06-26T04:16:13;7.90;;;7.13;;
9166;SDS011;4618;48.818;9.088;2023-06-26T04:18:38;8.00;;;7.20;;
9166;SDS011;4618;48.818;9.088;2023-06-26T04:21:08;7.90;;;7.20;;
9166;SDS011;4618;48.818;9.088;2023-06-26T04:23:36;7.57;;;6.90;;
9166;SDS011;4618;48.818;9.088;2023-06-26T04:26:02;7.80;;;7.03;;
9166;SDS011;4618;48.818;9.088;2023-06-26T04:28:29;7.20;;;6.50;;
9166;SDS011;4618;48.818;9.088;2023-06-26T04:30:56;7.77;;;6.93;;
9166;SDS011;4618;48.818;9.088;2023-06-26T04:33:22;6.73;;;6.13;;
9166;SDS011;4618;48.818;9.088;2023-06-26T04:35:48;9.10;;;8.17;;
9166;SDS011;4618;48.818;9.088;2023-06-26T04:38:14;8.47;;;7.70;;
9166;SDS011;4618;48.818;9.088;2023-06-26T04:40:40;10.40;;;8.30;;
9166;SDS011;4618;48.818;9.088;2023-06-26T04:43:06;11.47;;;7.83;;
9166;SDS011;4618;48.818;9.088;2023-06-26T04:45:32;9.27;;;8.47;;
9166;SDS011;4618;48.818;9.088;2023-06-26T04:47:57;11.20;;;8.23;;
9166;SDS011;4618;48.818;9.088;2023-06-26T04:50:25;9.60;;;7.90;;
9166;SDS011;4618;48.818;9.088;2023-06-26T04:52:54;9.00;;;7.90;;
9166;SDS011;4618;48.818;9.088;2023-06-26T04:55:20;9.33;;;7.40;;
9166;SDS011;4618;48.818;9.088;2023-06-26T04:57:46;12.73;;;8.07;;
9166;SDS011;4618;48.818;9.088;2023-06-26T05:00:12;8.27;;;7.47;;
9166;SDS011;4618;48.818;9.088;2023-06-26T05:02:38;8.63;;;7.57;;
9166;SDS011;4618;48.818;9.088;2023-06-26T05:05:04;8.83;;;7.93;;
9166;SDS011;4618;48.818;9.088;2023-06-26T05:07:30;8.70;;;7.80;;
9166;SDS011;4618;48.818;9.088;2023-06-26T05:09:55;8.50;;;7.70;;
9166;SDS011;4618;48.818;9.088;2023-06-26T05:12:21;9.20;;;7.40;;
9166;SDS011;4618;48.818;9.088;2023-06-26T05:14:46;10.10;;;7.67;;
9166;SDS011;4618;48.818;9.088;2023-06-26T05:17:15;11.57;;;7.97;;
9166;SDS011;4618;48.818;9.088;2023-06-26T05:19:41;8.70;;;7.80;;
9166;SDS011;4618;48.818;9.088;2023-06-26T05:22:07;8.17;;;7.47;;
9166;SDS011;4618;48.818;9.088;2023-06-26T05:24:36;10.77;;;8.00;;
9166;SDS011;4618;48.818;9.088;2023-06-26T05:27:02;7.77;;;7.07;;
9166;SDS011;4618;48.818;9.088;2023-06-26T05:29:30;9.80;;;8.27;;
9166;SDS011;4618;48.818;9.088;2023-06-26T05:31:56;9.60;;;8.27;;
9166;SDS011;4618;48.818;9.088;2023-06-26T05:34:23;9.70;;;7.77;;
9166;SDS011;4618;48.818;9.088;2023-06-26T05:36:50;8.43;;;7.30;;
9166;SDS011;4618;48.818;9.088;2023-06-26T05:39:16;8.10;;;7.13;;
9166;SDS011;4618;48.818;9.088;2023-06-26T05:41:45;8.57;;;7.60;;
9166;SDS011;4618;48.818;9.088;2023-06-26T05:44:11;9.47;;;7.13;;
9166;SDS011;4618;48.818;9.088;2023-06-26T05:46:37;9.87;;;7.40;;
9166;SDS011;4618;48.818;9.088;2023-06-26T05:49:03;9.17;;;7.00;;
9166;SDS011;4618;48.818;9.088;2023-06-26T05:51:28;7.23;;;6.63;;
9166;SDS011;4618;48.818;9.088;2023-06-26T05:53:54;6.90;;;6.23;;
9166;SDS011;4618;48.818;9.088;2023-06-26T05:56:20;9.83;;;6.50;;
9166;SDS011;4618;48.818;9.088;2023-06-26T05:58:46;7.35;;;6.60;;
9166;SDS011;4618;48.818;9.088;2023-06-26T06:01:12;10.45;;;6.88;;
9166;SDS011;4618;48.818;9.088;2023-06-26T06:03:38;8.10;;;6.75;;
9166;SDS011;4618;48.818;9.088;2023-06-26T06:06:05;9.80;;;6.93;;
9166;SDS011;4618;48.818;9.088;2023-06-26T06:08:30;9.00;;;6.50;;
9166;SDS011;4618;48.818;9.088;2023-06-26T06:10:56;7.07;;;6.25;;
9166;SDS011;4618;48.818;9.088;2023-06-26T06:13:21;7.63;;;6.75;;
9166;SDS011;4618;48.818;9.088;2023-06-26T06:15:47;9.20;;;6.50;;
9166;SDS011;4618;48.818;9.088;2023-06-26T06:18:12;8.05;;;6.78;;
9166;SDS011;4618;48.818;9.088;2023-06-26T06:20:38;6.85;;;6.25;;
9166;SDS011;4618;48.818;9.088;2023-06-26T06:23:04;8.15;;;6.88;;
9166;SDS011;4618;48.818;9.088;2023-06-26T06:25:29;8.07;;;5.93;;
9166;SDS011;4618;48.818;9.088;2023-06-26T06:27:55;7.65;;;6.88;;
9166;SDS011;4618;48.818;9.088;2023-06-26T06:30:20;6.80;;;6.10;;
9166;SDS011;4618;48.818;9.088;2023-06-26T06:32:46;7.65;;;6.35;;
9166;SDS011;4618;48.818;9.088;2023-06-26T06:35:15;6.80;;;6.20;;
9166;SDS011;4618;48.818;9.088;2023-06-26T06:37:42;7.18;;;6.00;;
9166;SDS011;4618;48.818;9.088;2023-06-26T06:40:08;6.88;;;6.18;;
9166;SDS011;4618;48.818;9.088;2023-06-26T06:42:35;6.32;;;5.72;;
9166;SDS011;4618;48.818;9.088;2023-06-26T06:45:03;8.52;;;6.15;;
9166;SDS011;4618;48.818;9.088;2023-06-26T06:47:29;7.30;;;5.72;;
9166;SDS011;4618;48.818;9.088;2023-06-26T06:49:56;6.57;;;5.90;;
9166;SDS011;4618;48.818;9.088;2023-06-26T06:52:22;8.48;;;5.97;;
9166;SDS011;4618;48.818;9.088;2023-06-26T06:54:50;6.32;;;5.80;;
9166;SDS011;4618;48.818;9.088;2023-06-26T06:57:17;6.90;;;6.20;;
9166;SDS011;4618;48.818;9.088;2023-06-26T06:59:44;6.43;;;5.82;;
9166;SDS011;4618;48.818;9.088;2023-06-26T07:02:09;7.10;;;6.43;;
9166;SDS011;4618;48.818;9.088;2023-06-26T07:04:35;6.50;;;5.90;;
9166;SDS011;4618;48.818;9.088;2023-06-26T07:07:00;6.35;;;5.75;;
9166;SDS011;4618;48.818;9.088;2023-06-26T07:09:26;6.20;;;5.63;;
9166;SDS011;4618;48.818;9.088;2023-06-26T07:11:51;6.35;;;5.75;;
9166;SDS011;4618;48.818;9.088;2023-06-26T07:14:17;6.88;;;5.85;;
9166;SDS011;4618;48.818;9.088;2023-06-26T07:16:42;6.40;;;5.90;;
9166;SDS011;4618;48.818;9.088;2023-06-26T07:19:08;6.30;;;5.70;;
9166;SDS011;4618;48.818;9.088;2023-06-26T07:21:33;5.97;;;5.45;;
9166;SDS011;4618;48.818;9.088;2023-06-26T07:23:59;6.20;;;5.70;;
9166;SDS011;4618;48.818;9.088;2023-06-26T07:26:24;6.40;;;5.78;;
9166;SDS011;4618;48.818;9.088;2023-06-26T07:28:50;5.45;;;5.05;;
9166;SDS011;4618;48.818;9.088;2023-06-26T07:31:15;6.68;;;5.07;;
9166;SDS011;4618;48.818;9.088;2023-06-26T07:33:41;5.90;;;5.20;;
9166;SDS011;4618;48.818;9.088;2023-06-26T07:36:07;5.65;;;5.13;;
9166;SDS011;4618;48.818;9.088;2023-06-26T07:38:32;5.85;;;5.25;;
9166;SDS011;4618;48.818;9.088;2023-06-26T07:40:58;5.75;;;5.18;;
9166;SDS011;4618;48.818;9.088;2023-06-26T07:43:24;5.68;;;5.18;;
9166;SDS011;4618;48.818;9.088;2023-06-26T07:45:49;5.63;;;5.13;;
9166;SDS011;4618;48.818;9.088;2023-06-26T07:48:16;5.72;;;5.07;;
9166;SDS011;4618;48.818;9.088;2023-06-26T07:50:42;5.88;;;5.38;;
9166;SDS011;4618;48.818;9.088;2023-06-26T07:53:07;5.70;;;4.60;;
9166;SDS011;4618;48.818;9.088;2023-06-26T07:55:33;6.03;;;4.53;;
9166;SDS011;4618;48.818;9.088;2023-06-26T07:57:59;5.28;;;4.78;;
9166;SDS011;4618;48.818;9.088;2023-06-26T08:00:24;7.13;;;4.38;;
9166;SDS011;4618;48.818;9.088;2023-06-26T08:02:51;4.72;;;4.43;;
9166;SDS011;4618;48.818;9.088;2023-06-26T08:05:16;6.22;;;4.55;;
9166;SDS011;4618;48.818;9.088;2023-06-26T08:07:42;4.47;;;4.07;;
9166;SDS011;4618;48.818;9.088;2023-06-26T08:10:08;5.00;;;4.60;;
9166;SDS011;4618;48.818;9.088;2023-06-26T08:12:34;5.25;;;4.75;;
9166;SDS011;4618;48.818;9.088;2023-06-26T08:14:59;5.70;;;4.53;;
9166;SDS011;4618;48.818;9.088;2023-06-26T08:17:27;5.13;;;4.57;;
9166;SDS011;4618;48.818;9.088;2023-06-26T08:19:53;4.63;;;4.25;;
9166;SDS011;4618;48.818;9.088;2023-06-26T08:22:18;4.18;;;3.88;;
9166;SDS011;4618;48.818;9.088;2023-06-26T08:24:44;4.85;;;3.80;;
9166;SDS011;4618;48.818;9.088;2023-06-26T08:27:09;4.10;;;3.80;;
9166;SDS011;4618;48.818;9.088;2023-06-26T08:29:35;4.15;;;3.85;;
9166;SDS011;4618;48.818;9.088;2023-06-26T08:32:00;4.10;;;3.70;;
9166;SDS011;4618;48.818;9.088;2023-06-26T08:34:27;4.20;;;3.50;;
9166;SDS011;4618;48.818;9.088;2023-06-26T08:36:52;4.53;;;4.13;;
9166;SDS011;4618;48.818;9.088;2023-06-26T08:39:18;3.88;;;3.58;;
9166;SDS011;4618;48.818;9.088;2023-06-26T08:41:44;4.25;;;3.85;;
9166;SDS011;4618;48.818;9.088;2023-06-26T08:44:10;4.30;;;3.90;;
9166;SDS011;4618;48.818;9.088;2023-06-26T08:46:35;4.40;;;4.10;;
9166;SDS011;4618;48.818;9.088;2023-06-26T08:49:02;4.00;;;3.70;;
9166;SDS011;4618;48.818;9.088;2023-06-26T08:51:38;4.07;;;3.63;;
9166;SDS011;4618;48.818;9.088;2023-06-26T08:54:11;4.60;;;4.20;;
9166;SDS011;4618;48.818;9.088;2023-06-26T08:56:40;4.22;;;3.80;;
9166;SDS011;4618;48.818;9.088;2023-06-26T08:59:08;5.07;;;3.88;;
9166;SDS011;4618;48.818;9.088;2023-06-26T09:01:36;4.05;;;3.72;;
9166;SDS011;4618;48.818;9.088;2023-06-26T09:04:02;8.73;;;3.90;;
9166;SDS011;4618;48.818;9.088;2023-06-26T09:06:28;4.93;;;3.80;;
9166;SDS011;4618;48.818;9.088;2023-06-26T09:08:53;4.40;;;4.00;;
9166;SDS011;4618;48.818;9.088;2023-06-26T09:11:19;3.92;;;3.63;;
9166;SDS011;4618;48.818;9.088;2023-06-26T09:13:45;4.03;;;3.83;;
9166;SDS011;4618;48.818;9.088;2023-06-26T09:16:12;4.20;;;3.90;;
9166;SDS011;4618;48.818;9.088;2023-06-26T09:18:38;5.63;;;3.58;;
9166;SDS011;4618;48.818;9.088;2023-06-26T09:21:07;4.00;;;3.80;;
9166;SDS011;4618;48.818;9.088;2023-06-26T09:23:34;3.90;;;3.60;;
9166;SDS011;4618;48.818;9.088;2023-06-26T09:26:01;4.97;;;3.90;;
9166;SDS011;4618;48.818;9.088;2023-06-26T09:28:29;4.30;;;3.85;;
9166;SDS011;4618;48.818;9.088;2023-06-26T09:30:59;4.40;;;4.00;;
9166;SDS011;4618;48.818;9.088;2023-06-26T09:33:32;4.10;;;3.80;;
9166;SDS011;4618;48.818;9.088;2023-06-26T09:36:00;7.82;;;4.38;;
9166;SDS011;4618;48.818;9.088;2023-06-26T09:38:26;4.95;;;4.22;;
9166;SDS011;4618;48.818;9.088;2023-06-26T09:40:52;10.38;;;4.30;;
9166;SDS011;4618;48.818;9.088;2023-06-26T09:43:18;5.90;;;4.07;;
9166;SDS011;4618;48.818;9.088;2023-06-26T09:45:44;4.22;;;3.80;;
9166;SDS011;4618;48.818;9.088;2023-06-26T09:48:09;4.68;;;4.28;;
9166;SDS011;4618;48.818;9.088;2023-06-26T09:50:36;4.70;;;3.97;;
9166;SDS011;4618;48.818;9.088;2023-06-26T09:53:12;5.50;;;4.60;;
9166;SDS011;4618;48.818;9.088;2023-06-26T09:55:39;4.20;;;4.00;;
9166;SDS011;4618;48.818;9.088;2023-06-26T09:58:08;8.13;;;4.40;;
9166;SDS011;4618;48.818;9.088;2023-06-26T10:00:39;4.88;;;4.45;;
9166;SDS011;4618;48.818;9.088;2023-06-26T10:03:08;4.72;;;4.05;;
9166;SDS011;4618;48.818;9.088;2023-06-26T10:05:35;4.93;;;4.43;;
9166;SDS011;4618;48.818;9.088;2023-06-26T10:08:00;4.88;;;4.57;;
9166;SDS011;4618;48.818;9.088;2023-06-26T10:10:27;5.60;;;5.07;;
9166;SDS011;4618;48.818;9.088;2023-06-26T10:12:54;4.85;;;4.45;;
9166;SDS011;4618;48.818;9.088;2023-06-26T10:15:29;9.15;;;4.90;;
9166;SDS011;4618;48.818;9.088;2023-06-26T10:17:56;5.50;;;5.10;;
9166;SDS011;4618;48.818;9.088;2023-06-26T10:20:22;7.75;;;5.50;;
9166;SDS011;4618;48.818;9.088;2023-06-26T10:22:49;5.65;;;5.20;;
9166;SDS011;4618;48.818;9.088;2023-06-26T10:25:18;6.20;;;5.60;;
9166;SDS011;4618;48.818;9.088;2023-06-26T10:27:50;10.73;;;5.82;;
9166;SDS011;4618;48.818;9.088;2023-06-26T10:30:20;9.45;;;5.50;;
9166;SDS011;4618;48.818;9.088;2023-06-26T10:32:49;6.55;;;5.47;;
9166;SDS011;4618;48.818;9.088;2023-06-26T10:35:15;6.00;;;5.32;;
9166;SDS011;4618;48.818;9.088;2023-06-26T10:37:45;8.40;;;5.10;;
9166;SDS011;4618;48.818;9.088;2023-06-26T10:40:13;8.70;;;5.00;;
9166;SDS011;4618;48.818;9.088;2023-06-26T10:42:39;6.13;;;5.53;;
9166;SDS011;4618;48.818;9.088;2023-06-26T10:45:19;5.65;;;5.15;;
9166;SDS011;4618;48.818;9.088;2023-06-26T10:47:46;5.45;;;5.05;;
9166;SDS011;4618;48.818;9.088;2023-06-26T10:50:17;9.10;;;5.03;;
9166;SDS011;4618;48.818;9.088;2023-06-26T10:52:45;6.22;;;5.20;;
9166;SDS011;4618;48.818;9.088;2023-06-26T10:55:31;5.72;;;5.18;;
9166;SDS011;4618;48.818;9.088;2023-06-26T10:57:56;6.22;;;5.28;;
9166;SDS011;4618;48.818;9.088;2023-06-26T11:00:22;11.77;;;5.40;;
9166;SDS011;4618;48.818;9.088;2023-06-26T11:02:51;5.55;;;5.20;;
9166;SDS011;4618;48.818;9.088;2023-06-26T11:05:26;6.25;;;5.60;;
9166;SDS011;4618;48.818;9.088;2023-06-26T11:08:06;6.05;;;5.50;;
9166;SDS011;4618;48.818;9.088;2023-06-26T11:10:49;5.97;;;5.35;;
9166;SDS011;4618;48.818;9.088;2023-06-26T11:13:17;7.80;;;5.53;;
9166;SDS011;4618;48.818;9.088;2023-06-26T11:15:44;8.18;;;5.28;;
9166;SDS011;4618;48.818;9.088;2023-06-26T11:18:10;6.63;;;5.15;;
9166;SDS011;4618;48.818;9.088;2023-06-26T11:20:37;8.07;;;5.03;;
9166;SDS011;4618;48.818;9.088;2023-06-26T11:23:03;7.80;;;5.22;;
9166;SDS011;4618;48.818;9.088;2023-06-26T11:25:31;6.90;;;5.30;;
9166;SDS011;4618;48.818;9.088;2023-06-26T11:28:05;6.47;;;5.40;;
9166;SDS011;4618;48.818;9.088;2023-06-26T11:30:34;5.82;;;4.68;;
9166;SDS011;4618;48.818;9.088;2023-06-26T11:33:06;8.02;;;5.40;;
9166;SDS011;4618;48.818;9.088;2023-06-26T11:35:33;8.80;;;5.30;;
9166;SDS011;4618;48.818;9.088;2023-06-26T11:37:59;5.82;;;4.88;;
9166;SDS011;4618;48.818;9.088;2023-06-26T11:40:29;6.82;;;5.03;;
9166;SDS011;4618;48.818;9.088;2023-06-26T11:43:00;7.80;;;4.80;;
9166;SDS011;4618;48.818;9.088;2023-06-26T11:45:28;6.63;;;4.97;;
9166;SDS011;4618;48.818;9.088;2023-06-26T11:47:58;6.97;;;4.97;;
9166;SDS011;4618;48.818;9.088;2023-06-26T11:50:25;6.55;;;5.20;;
9166;SDS011;4618;48.818;9.088;2023-06-26T11:52:57;4.78;;;4.47;;
9166;SDS011;4618;48.818;9.088;2023-06-26T11:55:24;5.90;;;5.40;;
9166;SDS011;4618;48.818;9.088;2023-06-26T11:57:54;7.88;;;5.10;;
9166;SDS011;4618;48.818;9.088;2023-06-26T12:00:21;8.00;;;5.45;;
9166;SDS011;4618;48.818;9.088;2023-06-26T12:02:47;7.05;;;5.20;;
9166;SDS011;4618;48.818;9.088;2023-06-26T12:05:15;7.90;;;5.28;;
9166;SDS011;4618;48.818;9.088;2023-06-26T12:07:42;6.15;;;5.40;;
9166;SDS011;4618;48.818;9.088;2023-06-26T12:10:10;6.07;;;5.03;;
9166;SDS011;4618;48.818;9.088;2023-06-26T12:12:37;7.72;;;5.38;;
9166;SDS011;4618;48.818;9.088;2023-06-26T12:15:04;6.88;;;5.32;;
9166;SDS011;4618;48.818;9.088;2023-06-26T12:17:31;5.60;;;5.10;;
9166;SDS011;4618;48.818;9.088;2023-06-26T12:19:57;5.78;;;4.80;;
9166;SDS011;4618;48.818;9.088;2023-06-26T12:22:22;7.70;;;5.00;;
9166;SDS011;4618;48.818;9.088;2023-06-26T12:24:48;7.40;;;5.10;;
9166;SDS011;4618;48.818;9.088;2023-06-26T12:27:14;5.30;;;4.90;;
9166;SDS011;4618;48.818;9.088;2023-06-26T12:29:47;7.47;;;5.20;;
9166;SDS011;4618;48.818;9.088;2023-06-26T12:32:16;7.55;;;4.97;;
9166;SDS011;4618;48.818;9.088;2023-06-26T12:34:41;5.45;;;4.93;;
9166;SDS011;4618;48.818;9.088;2023-06-26T12:37:11;6.10;;;4.97;;
9166;SDS011;4618;48.818;9.088;2023-06-26T12:40:15;5.22;;;4.72;;
9166;SDS011;4618;48.818;9.088;2023-06-26T12:42:41;6.50;;;4.72;;
9166;SDS011;4618;48.818;9.088;2023-06-26T12:45:10;5.70;;;5.10;;
9166;SDS011;4618;48.818;9.088;2023-06-26T12:47:37;5.50;;;4.93;;
9166;SDS011;4618;48.818;9.088;2023-06-26T12:50:04;7.43;;;5.28;;
9166;SDS011;4618;48.818;9.088;2023-06-26T12:52:30;5.93;;;4.80;;
9166;SDS011;4618;48.818;9.088;2023-06-26T12:54:56;5.50;;;4.82;;
9166;SDS011;4618;48.818;9.088;2023-06-26T12:57:22;6.60;;;4.90;;
9166;SDS011;4618;48.818;9.088;2023-06-26T12:59:48;5.45;;;4.95;;
9166;SDS011;4618;48.818;9.088;2023-06-26T13:02:14;6.43;;;4.70;;
9166;SDS011;4618;48.818;9.088;2023-06-26T13:04:40;9.75;;;4.95;;
9166;SDS011;4618;48.818;9.088;2023-06-26T13:07:08;7.90;;;4.72;;
9166;SDS011;4618;48.818;9.088;2023-06-26T13:09:35;10.00;;;4.75;;
9166;SDS011;4618;48.818;9.088;2023-06-26T13:12:01;6.15;;;4.93;;
9166;SDS011;4618;48.818;9.088;2023-06-26T13:14:28;4.45;;;4.10;;
9166;SDS011;4618;48.818;9.088;2023-06-26T13:16:54;5.53;;;4.07;;
9166;SDS011;4618;48.818;9.088;2023-06-26T13:19:20;6.20;;;4.35;;
9166;SDS011;4618;48.818;9.088;2023-06-26T13:21:45;4.65;;;4.18;;
9166;SDS011;4618;48.818;9.088;2023-06-26T13:24:11;8.50;;;4.57;;
9166;SDS011;4618;48.818;9.088;2023-06-26T13:26:37;9.68;;;4.60;;
9166;SDS011;4618;48.818;9.088;2023-06-26T13:29:03;6.68;;;4.13;;
9166;SDS011;4618;48.818;9.088;2023-06-26T13:31:29;7.28;;;4.10;;
9166;SDS011;4618;48.818;9.088;2023-06-26T13:33:56;4.57;;;3.95;;
9166;SDS011;4618;48.818;9.088;2023-06-26T13:36:28;4.70;;;4.28;;
9166;SDS011;4618;48.818;9.088;2023-06-26T13:38:54;4.93;;;4.53;;
9166;SDS011;4618;48.818;9.088;2023-06-26T13:41:22;4.40;;;3.92;;
9166;SDS011;4618;48.818;9.088;2023-06-26T13:43:48;4.60;;;4.30;;
9166;SDS011;4618;48.818;9.088;2023-06-26T13:46:14;5.38;;;4.15;;
9166;SDS011;4618;48.818;9.088;2023-06-26T13:48:40;4.38;;;3.78;;
9166;SDS011;4618;48.818;9.088;2023-06-26T13:51:06;5.93;;;3.58;;
9166;SDS011;4618;48.818;9.088;2023-06-26T13:53:32;4.82;;;3.78;;
9166;SDS011;4618;48.818;9.088;2023-06-26T13:55:57;6.50;;;3.85;;
9166;SDS011;4618;48.818;9.088;2023-06-26T13:58:23;4.32;;;3.67;;
9166;SDS011;4618;48.818;9.088;2023-06-26T14:00:51;3.80;;;3.50;;
9166;SDS011;4618;48.818;9.088;2023-06-26T14:03:17;4.00;;;3.53;;
9166;SDS011;4618;48.818;9.088;2023-06-26T14:05:43;6.60;;;3.58;;
9166;SDS011;4618;48.818;9.088;2023-06-26T14:08:08;4.20;;;3.03;;
9166;SDS011;4618;48.818;9.088;2023-06-26T14:10:35;3.20;;;2.90;;
9166;SDS011;4618;48.818;9.088;2023-06-26T14:13:01;3.80;;;3.15;;
9166;SDS011;4618;48.818;9.088;2023-06-26T14:15:28;3.33;;;2.90;;
9166;SDS011;4618;48.818;9.088;2023-06-26T14:17:53;3.92;;;2.70;;
9166;SDS011;4618;48.818;9.088;2023-06-26T14:20:20;4.38;;;3.00;;
9166;SDS011;4618;48.818;9.088;2023-06-26T14:22:47;4.10;;;2.75;;
9166;SDS011;4618;48.818;9.088;2023-06-26T14:25:13;3.25;;;2.60;;
9166;SDS011;4618;48.818;9.088;2023-06-26T14:27:40;6.80;;;2.90;;
9166;SDS011;4618;48.818;9.088;2023-06-26T14:30:06;3.72;;;2.67;;
9166;SDS011;4618;48.818;9.088;2023-06-26T14:32:32;2.80;;;2.58;;
9166;SDS011;4618;48.818;9.088;2023-06-26T14:34:58;4.38;;;2.97;;
9166;SDS011;4618;48.818;9.088;2023-06-26T14:37:28;3.65;;;2.50;;
9166;SDS011;4618;48.818;9.088;2023-06-26T14:39:55;4.47;;;2.80;;
9166;SDS011;4618;48.818;9.088;2023-06-26T14:42:21;5.55;;;2.58;;
9166;SDS011;4618;48.818;9.088;2023-06-26T14:44:46;4.13;;;2.65;;
9166;SDS011;4618;48.818;9.088;2023-06-26T14:47:16;3.90;;;2.72;;
9166;SDS011;4618;48.818;9.088;2023-06-26T14:49:42;3.13;;;2.80;;
9166;SDS011;4618;48.818;9.088;2023-06-26T14:52:07;5.30;;;2.95;;
9166;SDS011;4618;48.818;9.088;2023-06-26T14:54:33;9.90;;;3.25;;
9166;SDS011;4618;48.818;9.088;2023-06-26T14:57:01;6.60;;;3.35;;
9166;SDS011;4618;48.818;9.088;2023-06-26T14:59:27;12.38;;;3.38;;
9166;SDS011;4618;48.818;9.088;2023-06-26T15:01:53;6.63;;;3.20;;
9166;SDS011;4618;48.818;9.088;2023-06-26T15:04:19;5.43;;;3.88;;
9166;SDS011;4618;48.818;9.088;2023-06-26T15:06:44;5.35;;;4.00;;
9166;SDS011;4618;48.818;9.088;2023-06-26T15:09:10;4.88;;;3.42;;
9166;SDS011;4618;48.818;9.088;2023-06-26T15:11:35;5.75;;;3.63;;
9166;SDS011;4618;48.818;9.088;2023-06-26T15:14:01;7.65;;;3.65;;